Terminal Aerodrome Forecast
Issued by NWS

Home | Current Version | Previous Version | Text Only | Print | Product List | Glossary Off
Versions: 1 2 3 4 5 6 7 8 9 10 11 12 13 14 15 16 17 18 19 20 21 22 23 24 25 26 27 28 29 30 31 32 33 34 35
892 FTUS41 KBOX 052340 AAA TAFFMH TAF AMD KFMH 052340Z 0600/0624 32015G27KT P6SM BKN015 FM060115 32014G23KT P6SM SCT140 FM060500 32009KT P6SM FEW250 FM060900 31005KT P6SM FEW250 FM061700 24006KT P6SM FEW200 AMD NOT SKED=

USA.gov is the U.S. government's official web portal to all federal, state and local government web resources and services.